Rich Lake, Canada
Current Conditions -  °F | °C
As of 6:00 PM on Wednesday 22 Oct 2014 (Local Time) from CYOD Reporting Station
Broken Clouds Broken Clouds  
Wind Chill: 55°   Ceiling: 25000
Heat Index: 55°   Visibility: 15mi
Dew Point: 30°   Wind: 5mph
Humidity: 38%   Direction: 130°SE
Pressure: 29.69"   Gusts: NA
Location:  54.51°N, 111.62°W
Report Text: CYOD 230000Z 13004KT 15SM BKN250 13/M01 A2969 RMK CI2 SLP073
Loading
Personal Weather Stations






























Interactive Weather Map
Tropical Storm Tracking
New forecast layout! Learn more

10-Day Weather Forecast

Advertisements
Track Severe Weather on mobile